sensor_id;sensor_type;location;lat;lon;timestamp;P1;durP1;ratioP1;P2;durP2;ratioP2
26920;SDS011;14483;47.844;9.660;2023-01-06T00:00:39;4.10;;;2.00;;
26920;SDS011;14483;47.844;9.660;2023-01-06T00:03:06;4.50;;;1.58;;
26920;SDS011;14483;47.844;9.660;2023-01-06T00:05:33;2.88;;;1.25;;
26920;SDS011;14483;47.844;9.660;2023-01-06T00:08:00;1.73;;;0.90;;
26920;SDS011;14483;47.844;9.660;2023-01-06T00:10:26;1.05;;;0.60;;
26920;SDS011;14483;47.844;9.660;2023-01-06T00:12:54;0.93;;;0.52;;
26920;SDS011;14483;47.844;9.660;2023-01-06T00:15:20;1.00;;;0.50;;
26920;SDS011;14483;47.844;9.660;2023-01-06T00:17:46;1.45;;;0.43;;
26920;SDS011;14483;47.844;9.660;2023-01-06T00:20:13;1.80;;;0.60;;
26920;SDS011;14483;47.844;9.660;2023-01-06T00:22:39;1.75;;;0.50;;
26920;SDS011;14483;47.844;9.660;2023-01-06T00:25:06;3.42;;;0.40;;
26920;SDS011;14483;47.844;9.660;2023-01-06T00:27:34;0.70;;;0.60;;
26920;SDS011;14483;47.844;9.660;2023-01-06T00:30:02;2.42;;;0.68;;
26920;SDS011;14483;47.844;9.660;2023-01-06T00:32:29;2.88;;;0.65;;
26920;SDS011;14483;47.844;9.660;2023-01-06T00:34:55;1.13;;;0.60;;
26920;SDS011;14483;47.844;9.660;2023-01-06T00:37:21;2.88;;;0.50;;
26920;SDS011;14483;47.844;9.660;2023-01-06T00:39:48;0.50;;;0.43;;
26920;SDS011;14483;47.844;9.660;2023-01-06T00:42:14;1.65;;;0.63;;
26920;SDS011;14483;47.844;9.660;2023-01-06T00:44:41;1.13;;;0.43;;
26920;SDS011;14483;47.844;9.660;2023-01-06T00:47:09;1.38;;;0.65;;
26920;SDS011;14483;47.844;9.660;2023-01-06T00:49:35;0.80;;;0.32;;
26920;SDS011;14483;47.844;9.660;2023-01-06T00:52:02;0.73;;;0.40;;
26920;SDS011;14483;47.844;9.660;2023-01-06T00:54:29;1.05;;;0.50;;
26920;SDS011;14483;47.844;9.660;2023-01-06T00:56:55;2.03;;;0.68;;
26920;SDS011;14483;47.844;9.660;2023-01-06T00:59:22;1.23;;;0.43;;
26920;SDS011;14483;47.844;9.660;2023-01-06T01:01:50;2.40;;;0.90;;
26920;SDS011;14483;47.844;9.660;2023-01-06T01:04:18;0.98;;;0.52;;
26920;SDS011;14483;47.844;9.660;2023-01-06T01:06:45;0.90;;;0.45;;
26920;SDS011;14483;47.844;9.660;2023-01-06T01:09:13;0.85;;;0.40;;
26920;SDS011;14483;47.844;9.660;2023-01-06T01:11:39;1.33;;;0.50;;
26920;SDS011;14483;47.844;9.660;2023-01-06T01:14:23;1.65;;;0.60;;
26920;SDS011;14483;47.844;9.660;2023-01-06T01:16:49;0.88;;;0.40;;
26920;SDS011;14483;47.844;9.660;2023-01-06T01:19:17;0.60;;;0.43;;
26920;SDS011;14483;47.844;9.660;2023-01-06T01:21:44;0.80;;;0.50;;
26920;SDS011;14483;47.844;9.660;2023-01-06T01:24:10;0.80;;;0.47;;
26920;SDS011;14483;47.844;9.660;2023-01-06T01:26:37;2.35;;;0.57;;
26920;SDS011;14483;47.844;9.660;2023-01-06T01:29:04;0.80;;;0.40;;
26920;SDS011;14483;47.844;9.660;2023-01-06T01:31:30;1.25;;;0.60;;
26920;SDS011;14483;47.844;9.660;2023-01-06T01:33:57;2.80;;;0.60;;
26920;SDS011;14483;47.844;9.660;2023-01-06T01:36:26;1.38;;;0.60;;
26920;SDS011;14483;47.844;9.660;2023-01-06T01:38:54;1.00;;;0.60;;
26920;SDS011;14483;47.844;9.660;2023-01-06T01:41:21;3.00;;;0.50;;
26920;SDS011;14483;47.844;9.660;2023-01-06T01:43:49;2.05;;;0.63;;
26920;SDS011;14483;47.844;9.660;2023-01-06T01:46:17;1.00;;;0.60;;
26920;SDS011;14483;47.844;9.660;2023-01-06T01:48:44;2.50;;;0.90;;
26920;SDS011;14483;47.844;9.660;2023-01-06T01:51:11;1.25;;;0.55;;
26920;SDS011;14483;47.844;9.660;2023-01-06T01:53:41;1.10;;;0.50;;
26920;SDS011;14483;47.844;9.660;2023-01-06T01:56:10;1.65;;;0.70;;
26920;SDS011;14483;47.844;9.660;2023-01-06T01:58:39;4.15;;;0.65;;
26920;SDS011;14483;47.844;9.660;2023-01-06T02:01:07;4.30;;;0.60;;
26920;SDS011;14483;47.844;9.660;2023-01-06T02:03:34;2.63;;;0.70;;
26920;SDS011;14483;47.844;9.660;2023-01-06T02:06:02;2.33;;;0.47;;
26920;SDS011;14483;47.844;9.660;2023-01-06T02:08:30;1.75;;;0.55;;
26920;SDS011;14483;47.844;9.660;2023-01-06T02:10:59;2.90;;;0.50;;
26920;SDS011;14483;47.844;9.660;2023-01-06T02:13:26;0.70;;;0.47;;
26920;SDS011;14483;47.844;9.660;2023-01-06T02:15:58;1.25;;;0.50;;
26920;SDS011;14483;47.844;9.660;2023-01-06T02:18:32;1.00;;;0.50;;
26920;SDS011;14483;47.844;9.660;2023-01-06T02:21:06;1.40;;;0.57;;
26920;SDS011;14483;47.844;9.660;2023-01-06T02:29:14;0.73;;;0.50;;
26920;SDS011;14483;47.844;9.660;2023-01-06T02:31:58;2.83;;;0.60;;
26920;SDS011;14483;47.844;9.660;2023-01-06T02:34:29;0.70;;;0.47;;
26920;SDS011;14483;47.844;9.660;2023-01-06T02:36:57;1.73;;;0.90;;
26920;SDS011;14483;47.844;9.660;2023-01-06T02:39:29;3.38;;;1.05;;
26920;SDS011;14483;47.844;9.660;2023-01-06T02:41:58;6.45;;;2.13;;
26920;SDS011;14483;47.844;9.660;2023-01-06T02:44:27;5.30;;;1.63;;
26920;SDS011;14483;47.844;9.660;2023-01-06T02:47:00;9.95;;;3.17;;
26920;SDS011;14483;47.844;9.660;2023-01-06T02:49:31;5.75;;;2.28;;
26920;SDS011;14483;47.844;9.660;2023-01-06T02:52:06;2.47;;;1.10;;
26920;SDS011;14483;47.844;9.660;2023-01-06T02:54:36;1.95;;;0.60;;
26920;SDS011;14483;47.844;9.660;2023-01-06T02:57:12;1.38;;;0.60;;
26920;SDS011;14483;47.844;9.660;2023-01-06T02:59:41;1.33;;;0.57;;
26920;SDS011;14483;47.844;9.660;2023-01-06T03:02:10;3.60;;;0.73;;
26920;SDS011;14483;47.844;9.660;2023-01-06T03:04:38;2.03;;;0.60;;
26920;SDS011;14483;47.844;9.660;2023-01-06T03:07:05;1.33;;;0.40;;
26920;SDS011;14483;47.844;9.660;2023-01-06T03:09:32;2.13;;;0.60;;
26920;SDS011;14483;47.844;9.660;2023-01-06T03:11:59;3.65;;;0.68;;
26920;SDS011;14483;47.844;9.660;2023-01-06T03:14:27;1.50;;;0.90;;
26920;SDS011;14483;47.844;9.660;2023-01-06T03:16:55;2.00;;;0.77;;
26920;SDS011;14483;47.844;9.660;2023-01-06T03:19:23;1.30;;;0.60;;
26920;SDS011;14483;47.844;9.660;2023-01-06T03:21:49;2.47;;;0.68;;
26920;SDS011;14483;47.844;9.660;2023-01-06T03:24:16;2.13;;;1.00;;
26920;SDS011;14483;47.844;9.660;2023-01-06T03:26:43;1.60;;;0.68;;
26920;SDS011;14483;47.844;9.660;2023-01-06T03:29:11;4.30;;;1.75;;
26920;SDS011;14483;47.844;9.660;2023-01-06T03:31:39;3.72;;;1.70;;
26920;SDS011;14483;47.844;9.660;2023-01-06T03:34:08;3.35;;;1.30;;
26920;SDS011;14483;47.844;9.660;2023-01-06T03:36:42;2.08;;;0.85;;
26920;SDS011;14483;47.844;9.660;2023-01-06T03:39:13;1.50;;;0.55;;
26920;SDS011;14483;47.844;9.660;2023-01-06T03:41:41;2.50;;;0.95;;
26920;SDS011;14483;47.844;9.660;2023-01-06T03:44:31;10.57;;;3.65;;
26920;SDS011;14483;47.844;9.660;2023-01-06T03:47:02;7.78;;;2.38;;
26920;SDS011;14483;47.844;9.660;2023-01-06T03:49:30;2.92;;;1.20;;
26920;SDS011;14483;47.844;9.660;2023-01-06T03:51:59;2.55;;;1.05;;
26920;SDS011;14483;47.844;9.660;2023-01-06T03:54:31;2.05;;;0.90;;
26920;SDS011;14483;47.844;9.660;2023-01-06T03:57:01;2.88;;;1.00;;
26920;SDS011;14483;47.844;9.660;2023-01-06T03:59:30;2.28;;;0.77;;
26920;SDS011;14483;47.844;9.660;2023-01-06T04:01:57;2.33;;;0.98;;
26920;SDS011;14483;47.844;9.660;2023-01-06T04:04:24;6.95;;;1.73;;
26920;SDS011;14483;47.844;9.660;2023-01-06T04:06:51;8.32;;;2.05;;
26920;SDS011;14483;47.844;9.660;2023-01-06T04:09:18;6.38;;;2.05;;
26920;SDS011;14483;47.844;9.660;2023-01-06T04:11:45;9.27;;;2.83;;
26920;SDS011;14483;47.844;9.660;2023-01-06T04:14:28;15.07;;;4.30;;
26920;SDS011;14483;47.844;9.660;2023-01-06T04:16:55;6.20;;;2.10;;
26920;SDS011;14483;47.844;9.660;2023-01-06T04:19:21;2.72;;;0.93;;
26920;SDS011;14483;47.844;9.660;2023-01-06T04:21:47;23.15;;;6.30;;
26920;SDS011;14483;47.844;9.660;2023-01-06T04:24:14;15.30;;;4.60;;
26920;SDS011;14483;47.844;9.660;2023-01-06T04:26:41;15.68;;;3.67;;
26920;SDS011;14483;47.844;9.660;2023-01-06T04:29:08;9.90;;;3.22;;
26920;SDS011;14483;47.844;9.660;2023-01-06T04:31:34;10.90;;;3.05;;
26920;SDS011;14483;47.844;9.660;2023-01-06T04:34:00;8.77;;;2.67;;
26920;SDS011;14483;47.844;9.660;2023-01-06T04:36:27;4.43;;;2.00;;
26920;SDS011;14483;47.844;9.660;2023-01-06T04:38:53;2.33;;;0.73;;
26920;SDS011;14483;47.844;9.660;2023-01-06T04:41:19;1.88;;;0.65;;
26920;SDS011;14483;47.844;9.660;2023-01-06T04:43:47;2.30;;;0.77;;
26920;SDS011;14483;47.844;9.660;2023-01-06T04:46:14;3.72;;;1.05;;
26920;SDS011;14483;47.844;9.660;2023-01-06T04:48:40;5.47;;;1.40;;
26920;SDS011;14483;47.844;9.660;2023-01-06T04:51:07;4.80;;;1.58;;
26920;SDS011;14483;47.844;9.660;2023-01-06T04:53:33;7.63;;;2.22;;
26920;SDS011;14483;47.844;9.660;2023-01-06T04:56:03;13.18;;;4.25;;
26920;SDS011;14483;47.844;9.660;2023-01-06T04:58:30;13.63;;;4.13;;
26920;SDS011;14483;47.844;9.660;2023-01-06T05:00:59;9.38;;;2.85;;
26920;SDS011;14483;47.844;9.660;2023-01-06T05:03:26;3.58;;;1.63;;
26920;SDS011;14483;47.844;9.660;2023-01-06T05:05:52;3.38;;;1.40;;
26920;SDS011;14483;47.844;9.660;2023-01-06T05:08:19;4.85;;;1.42;;
26920;SDS011;14483;47.844;9.660;2023-01-06T05:10:45;4.50;;;1.42;;
26920;SDS011;14483;47.844;9.660;2023-01-06T05:13:11;9.02;;;2.35;;
26920;SDS011;14483;47.844;9.660;2023-01-06T05:15:38;6.07;;;1.58;;
26920;SDS011;14483;47.844;9.660;2023-01-06T05:18:05;3.53;;;1.30;;
26920;SDS011;14483;47.844;9.660;2023-01-06T05:20:32;3.53;;;1.38;;
26920;SDS011;14483;47.844;9.660;2023-01-06T05:22:58;5.15;;;1.35;;
26920;SDS011;14483;47.844;9.660;2023-01-06T05:25:24;5.80;;;1.15;;
26920;SDS011;14483;47.844;9.660;2023-01-06T05:27:51;5.35;;;1.30;;
26920;SDS011;14483;47.844;9.660;2023-01-06T05:30:17;2.45;;;1.08;;
26920;SDS011;14483;47.844;9.660;2023-01-06T05:32:43;4.13;;;1.20;;
26920;SDS011;14483;47.844;9.660;2023-01-06T05:35:11;5.97;;;1.45;;
26920;SDS011;14483;47.844;9.660;2023-01-06T05:37:38;4.90;;;1.60;;
26920;SDS011;14483;47.844;9.660;2023-01-06T05:40:04;4.32;;;1.20;;
26920;SDS011;14483;47.844;9.660;2023-01-06T05:42:31;3.17;;;1.25;;
26920;SDS011;14483;47.844;9.660;2023-01-06T05:44:57;6.20;;;1.42;;
26920;SDS011;14483;47.844;9.660;2023-01-06T05:47:23;8.57;;;1.90;;
26920;SDS011;14483;47.844;9.660;2023-01-06T05:49:50;9.60;;;1.83;;
26920;SDS011;14483;47.844;9.660;2023-01-06T05:52:18;3.40;;;1.63;;
26920;SDS011;14483;47.844;9.660;2023-01-06T05:54:44;3.42;;;1.75;;
26920;SDS011;14483;47.844;9.660;2023-01-06T05:57:10;7.00;;;1.52;;
26920;SDS011;14483;47.844;9.660;2023-01-06T05:59:37;3.33;;;1.02;;
26920;SDS011;14483;47.844;9.660;2023-01-06T06:02:03;2.20;;;1.00;;
26920;SDS011;14483;47.844;9.660;2023-01-06T06:04:29;3.38;;;1.15;;
26920;SDS011;14483;47.844;9.660;2023-01-06T06:06:56;6.28;;;3.28;;
26920;SDS011;14483;47.844;9.660;2023-01-06T06:09:23;5.40;;;2.22;;
26920;SDS011;14483;47.844;9.660;2023-01-06T06:11:50;4.10;;;2.05;;
26920;SDS011;14483;47.844;9.660;2023-01-06T06:14:18;7.03;;;3.25;;
26920;SDS011;14483;47.844;9.660;2023-01-06T06:16:44;10.50;;;3.72;;
26920;SDS011;14483;47.844;9.660;2023-01-06T06:19:11;5.47;;;2.85;;
26920;SDS011;14483;47.844;9.660;2023-01-06T06:21:38;5.15;;;2.08;;
26920;SDS011;14483;47.844;9.660;2023-01-06T06:24:04;6.55;;;2.22;;
26920;SDS011;14483;47.844;9.660;2023-01-06T06:26:32;5.22;;;1.98;;
26920;SDS011;14483;47.844;9.660;2023-01-06T06:28:59;22.67;;;8.00;;
26920;SDS011;14483;47.844;9.660;2023-01-06T06:31:26;17.77;;;7.28;;
26920;SDS011;14483;47.844;9.660;2023-01-06T06:33:53;2.80;;;1.50;;
26920;SDS011;14483;47.844;9.660;2023-01-06T06:36:20;2.35;;;1.13;;
26920;SDS011;14483;47.844;9.660;2023-01-06T06:38:47;1.73;;;0.70;;
26920;SDS011;14483;47.844;9.660;2023-01-06T06:41:14;1.67;;;0.98;;
26920;SDS011;14483;47.844;9.660;2023-01-06T06:43:42;4.22;;;1.30;;
26920;SDS011;14483;47.844;9.660;2023-01-06T06:46:08;3.30;;;1.20;;
26920;SDS011;14483;47.844;9.660;2023-01-06T06:48:35;2.45;;;1.23;;
26920;SDS011;14483;47.844;9.660;2023-01-06T06:51:02;2.67;;;1.30;;
26920;SDS011;14483;47.844;9.660;2023-01-06T06:53:29;1.60;;;0.90;;
26920;SDS011;14483;47.844;9.660;2023-01-06T06:55:56;1.83;;;0.88;;
26920;SDS011;14483;47.844;9.660;2023-01-06T06:58:23;1.70;;;0.93;;
26920;SDS011;14483;47.844;9.660;2023-01-06T07:00:51;2.78;;;1.17;;
26920;SDS011;14483;47.844;9.660;2023-01-06T07:03:17;5.45;;;1.67;;
26920;SDS011;14483;47.844;9.660;2023-01-06T07:05:45;3.83;;;1.70;;
26920;SDS011;14483;47.844;9.660;2023-01-06T07:08:13;2.85;;;1.50;;
26920;SDS011;14483;47.844;9.660;2023-01-06T07:10:39;3.25;;;1.38;;
26920;SDS011;14483;47.844;9.660;2023-01-06T07:13:06;5.00;;;1.67;;
26920;SDS011;14483;47.844;9.660;2023-01-06T07:15:32;3.90;;;1.60;;
26920;SDS011;14483;47.844;9.660;2023-01-06T07:18:00;4.10;;;1.73;;
26920;SDS011;14483;47.844;9.660;2023-01-06T07:20:27;3.60;;;1.30;;
26920;SDS011;14483;47.844;9.660;2023-01-06T07:22:53;4.32;;;1.90;;
26920;SDS011;14483;47.844;9.660;2023-01-06T07:25:20;7.55;;;2.47;;
26920;SDS011;14483;47.844;9.660;2023-01-06T07:27:46;5.88;;;2.40;;
26920;SDS011;14483;47.844;9.660;2023-01-06T07:30:17;17.30;;;4.57;;
26920;SDS011;14483;47.844;9.660;2023-01-06T07:32:44;14.35;;;4.85;;
26920;SDS011;14483;47.844;9.660;2023-01-06T07:35:11;16.25;;;6.28;;
26920;SDS011;14483;47.844;9.660;2023-01-06T07:37:38;12.38;;;4.53;;
26920;SDS011;14483;47.844;9.660;2023-01-06T07:40:05;7.78;;;4.18;;
26920;SDS011;14483;47.844;9.660;2023-01-06T07:42:31;5.10;;;3.08;;
26920;SDS011;14483;47.844;9.660;2023-01-06T07:44:58;4.30;;;2.10;;
26920;SDS011;14483;47.844;9.660;2023-01-06T07:47:24;4.13;;;1.73;;
26920;SDS011;14483;47.844;9.660;2023-01-06T07:49:50;3.45;;;1.70;;
26920;SDS011;14483;47.844;9.660;2023-01-06T07:52:18;6.45;;;3.10;;
26920;SDS011;14483;47.844;9.660;2023-01-06T07:54:44;6.13;;;2.40;;
26920;SDS011;14483;47.844;9.660;2023-01-06T07:57:11;7.30;;;2.47;;
26920;SDS011;14483;47.844;9.660;2023-01-06T07:59:37;8.50;;;4.10;;
26920;SDS011;14483;47.844;9.660;2023-01-06T08:02:04;16.13;;;9.50;;
26920;SDS011;14483;47.844;9.660;2023-01-06T08:04:31;13.32;;;8.02;;
26920;SDS011;14483;47.844;9.660;2023-01-06T08:06:59;22.73;;;15.60;;
26920;SDS011;14483;47.844;9.660;2023-01-06T08:09:27;20.17;;;9.65;;
26920;SDS011;14483;47.844;9.660;2023-01-06T08:11:53;14.38;;;8.15;;
26920;SDS011;14483;47.844;9.660;2023-01-06T08:14:19;16.90;;;8.30;;
26920;SDS011;14483;47.844;9.660;2023-01-06T08:16:46;23.48;;;10.27;;
26920;SDS011;14483;47.844;9.660;2023-01-06T08:19:12;14.85;;;7.78;;
26920;SDS011;14483;47.844;9.660;2023-01-06T08:21:39;17.42;;;7.05;;
26920;SDS011;14483;47.844;9.660;2023-01-06T08:24:05;24.60;;;8.63;;
26920;SDS011;14483;47.844;9.660;2023-01-06T08:26:33;33.80;;;12.93;;
26920;SDS011;14483;47.844;9.660;2023-01-06T08:29:00;42.13;;;14.93;;
26920;SDS011;14483;47.844;9.660;2023-01-06T08:31:26;39.00;;;15.60;;
26920;SDS011;14483;47.844;9.660;2023-01-06T08:33:52;38.50;;;15.27;;
26920;SDS011;14483;47.844;9.660;2023-01-06T08:36:19;39.65;;;15.05;;
26920;SDS011;14483;47.844;9.660;2023-01-06T08:38:46;69.53;;;15.20;;
26920;SDS011;14483;47.844;9.660;2023-01-06T08:41:13;26.35;;;10.98;;
26920;SDS011;14483;47.844;9.660;2023-01-06T08:43:41;23.48;;;10.13;;
26920;SDS011;14483;47.844;9.660;2023-01-06T08:46:10;29.73;;;10.80;;
26920;SDS011;14483;47.844;9.660;2023-01-06T08:48:37;36.38;;;11.07;;
26920;SDS011;14483;47.844;9.660;2023-01-06T08:51:04;32.17;;;9.57;;
26920;SDS011;14483;47.844;9.660;2023-01-06T08:53:31;46.83;;;10.43;;
26920;SDS011;14483;47.844;9.660;2023-01-06T08:55:58;30.88;;;10.07;;
26920;SDS011;14483;47.844;9.660;2023-01-06T08:58:24;22.85;;;10.07;;
26920;SDS011;14483;47.844;9.660;2023-01-06T09:00:52;29.98;;;10.93;;
26920;SDS011;14483;47.844;9.660;2023-01-06T09:03:19;33.25;;;11.63;;
26920;SDS011;14483;47.844;9.660;2023-01-06T09:05:50;28.52;;;11.73;;
26920;SDS011;14483;47.844;9.660;2023-01-06T09:08:16;28.80;;;11.93;;
26920;SDS011;14483;47.844;9.660;2023-01-06T09:10:43;24.70;;;10.43;;
26920;SDS011;14483;47.844;9.660;2023-01-06T09:13:09;30.05;;;11.25;;
26920;SDS011;14483;47.844;9.660;2023-01-06T09:15:38;30.83;;;12.32;;
26920;SDS011;14483;47.844;9.660;2023-01-06T09:18:06;26.00;;;11.43;;
26920;SDS011;14483;47.844;9.660;2023-01-06T09:20:33;20.95;;;10.00;;
26920;SDS011;14483;47.844;9.660;2023-01-06T09:22:59;28.10;;;10.95;;
26920;SDS011;14483;47.844;9.660;2023-01-06T09:25:26;29.77;;;12.15;;
26920;SDS011;14483;47.844;9.660;2023-01-06T09:27:52;21.80;;;10.57;;
26920;SDS011;14483;47.844;9.660;2023-01-06T09:30:18;26.15;;;10.90;;
26920;SDS011;14483;47.844;9.660;2023-01-06T09:32:45;23.63;;;11.10;;
26920;SDS011;14483;47.844;9.660;2023-01-06T09:35:13;19.63;;;8.98;;
26920;SDS011;14483;47.844;9.660;2023-01-06T09:37:39;18.10;;;9.02;;
26920;SDS011;14483;47.844;9.660;2023-01-06T09:40:06;17.90;;;8.32;;
26920;SDS011;14483;47.844;9.660;2023-01-06T09:42:38;20.15;;;9.30;;
26920;SDS011;14483;47.844;9.660;2023-01-06T09:45:13;17.60;;;8.10;;
26920;SDS011;14483;47.844;9.660;2023-01-06T09:47:42;15.95;;;8.30;;
26920;SDS011;14483;47.844;9.660;2023-01-06T09:50:12;18.30;;;8.82;;
26920;SDS011;14483;47.844;9.660;2023-01-06T09:52:42;18.45;;;8.70;;
26920;SDS011;14483;47.844;9.660;2023-01-06T09:55:10;21.42;;;9.23;;
26920;SDS011;14483;47.844;9.660;2023-01-06T09:57:40;17.17;;;8.13;;
26920;SDS011;14483;47.844;9.660;2023-01-06T10:00:13;18.45;;;9.13;;
26920;SDS011;14483;47.844;9.660;2023-01-06T10:02:44;17.42;;;10.02;;
26920;SDS011;14483;47.844;9.660;2023-01-06T10:05:15;18.52;;;8.40;;
26920;SDS011;14483;47.844;9.660;2023-01-06T10:07:45;18.23;;;9.57;;
26920;SDS011;14483;47.844;9.660;2023-01-06T10:10:15;16.13;;;7.80;;
26920;SDS011;14483;47.844;9.660;2023-01-06T10:12:45;14.60;;;7.18;;
26920;SDS011;14483;47.844;9.660;2023-01-06T10:15:13;12.52;;;6.25;;
26920;SDS011;14483;47.844;9.660;2023-01-06T10:17:48;11.50;;;6.60;;
26920;SDS011;14483;47.844;9.660;2023-01-06T10:23:21;13.88;;;7.78;;
26920;SDS011;14483;47.844;9.660;2023-01-06T10:25:52;13.68;;;6.93;;
26920;SDS011;14483;47.844;9.660;2023-01-06T10:28:21;17.55;;;7.50;;
26920;SDS011;14483;47.844;9.660;2023-01-06T10:30:53;13.88;;;7.82;;
26920;SDS011;14483;47.844;9.660;2023-01-06T10:33:21;17.70;;;8.35;;
26920;SDS011;14483;47.844;9.660;2023-01-06T10:35:48;15.15;;;8.32;;
26920;SDS011;14483;47.844;9.660;2023-01-06T10:38:15;15.88;;;8.10;;
26920;SDS011;14483;47.844;9.660;2023-01-06T10:40:43;15.75;;;7.88;;
26920;SDS011;14483;47.844;9.660;2023-01-06T10:43:10;16.60;;;8.45;;
26920;SDS011;14483;47.844;9.660;2023-01-06T10:45:37;15.27;;;8.02;;
26920;SDS011;14483;47.844;9.660;2023-01-06T10:48:05;16.05;;;7.53;;
26920;SDS011;14483;47.844;9.660;2023-01-06T10:50:32;13.38;;;7.35;;
26920;SDS011;14483;47.844;9.660;2023-01-06T10:52:59;14.63;;;8.23;;
26920;SDS011;14483;47.844;9.660;2023-01-06T10:55:28;16.52;;;8.48;;
26920;SDS011;14483;47.844;9.660;2023-01-06T10:57:59;14.32;;;7.75;;
26920;SDS011;14483;47.844;9.660;2023-01-06T11:00:28;12.93;;;6.47;;
26920;SDS011;14483;47.844;9.660;2023-01-06T11:03:01;11.85;;;6.43;;
26920;SDS011;14483;47.844;9.660;2023-01-06T11:05:29;10.65;;;5.97;;
26920;SDS011;14483;47.844;9.660;2023-01-06T11:07:57;12.00;;;6.70;;
26920;SDS011;14483;47.844;9.660;2023-01-06T11:10:28;11.25;;;6.40;;
26920;SDS011;14483;47.844;9.660;2023-01-06T11:12:55;15.98;;;7.20;;
26920;SDS011;14483;47.844;9.660;2023-01-06T11:15:27;12.52;;;6.47;;
26920;SDS011;14483;47.844;9.660;2023-01-06T11:17:54;9.93;;;5.75;;
26920;SDS011;14483;47.844;9.660;2023-01-06T11:20:27;10.63;;;5.35;;
26920;SDS011;14483;47.844;9.660;2023-01-06T11:22:54;9.27;;;5.28;;
26920;SDS011;14483;47.844;9.660;2023-01-06T11:25:22;10.30;;;5.43;;
26920;SDS011;14483;47.844;9.660;2023-01-06T11:30:37;9.77;;;5.50;;
26920;SDS011;14483;47.844;9.660;2023-01-06T11:33:04;9.32;;;5.63;;
26920;SDS011;14483;47.844;9.660;2023-01-06T11:35:38;9.40;;;5.38;;
26920;SDS011;14483;47.844;9.660;2023-01-06T11:38:05;10.32;;;5.05;;
26920;SDS011;14483;47.844;9.660;2023-01-06T11:40:32;8.85;;;5.43;;
26920;SDS011;14483;47.844;9.660;2023-01-06T11:42:59;9.18;;;4.97;;
26920;SDS011;14483;47.844;9.660;2023-01-06T11:45:28;9.48;;;5.55;;
26920;SDS011;14483;47.844;9.660;2023-01-06T11:47:56;8.75;;;5.10;;
26920;SDS011;14483;47.844;9.660;2023-01-06T11:50:22;9.00;;;4.80;;
26920;SDS011;14483;47.844;9.660;2023-01-06T11:52:56;7.07;;;4.07;;
26920;SDS011;14483;47.844;9.660;2023-01-06T11:55:23;6.97;;;4.35;;
26920;SDS011;14483;47.844;9.660;2023-01-06T11:57:53;7.65;;;4.50;;
26920;SDS011;14483;47.844;9.660;2023-01-06T12:00:24;9.55;;;4.00;;
26920;SDS011;14483;47.844;9.660;2023-01-06T12:02:57;7.10;;;3.85;;
26920;SDS011;14483;47.844;9.660;2023-01-06T12:05:31;6.50;;;3.70;;
26920;SDS011;14483;47.844;9.660;2023-01-06T12:08:01;7.90;;;4.27;;
26920;SDS011;14483;47.844;9.660;2023-01-06T12:10:30;5.43;;;3.15;;
26920;SDS011;14483;47.844;9.660;2023-01-06T12:12:58;5.05;;;2.97;;
26920;SDS011;14483;47.844;9.660;2023-01-06T12:15:24;4.90;;;3.08;;
26920;SDS011;14483;47.844;9.660;2023-01-06T12:17:54;6.03;;;3.15;;
26920;SDS011;14483;47.844;9.660;2023-01-06T12:20:23;5.97;;;2.90;;
26920;SDS011;14483;47.844;9.660;2023-01-06T12:22:52;5.28;;;3.17;;
26920;SDS011;14483;47.844;9.660;2023-01-06T12:25:20;6.00;;;3.30;;
26920;SDS011;14483;47.844;9.660;2023-01-06T12:27:55;5.45;;;3.20;;
26920;SDS011;14483;47.844;9.660;2023-01-06T12:30:28;5.95;;;2.65;;
26920;SDS011;14483;47.844;9.660;2023-01-06T12:32:57;7.22;;;3.45;;
26920;SDS011;14483;47.844;9.660;2023-01-06T12:35:27;3.53;;;2.08;;
26920;SDS011;14483;47.844;9.660;2023-01-06T12:37:55;3.15;;;1.65;;
26920;SDS011;14483;47.844;9.660;2023-01-06T12:40:24;6.13;;;3.42;;
26920;SDS011;14483;47.844;9.660;2023-01-06T12:42:54;6.45;;;2.05;;
26920;SDS011;14483;47.844;9.660;2023-01-06T12:45:27;5.47;;;2.47;;
26920;SDS011;14483;47.844;9.660;2023-01-06T12:47:56;3.83;;;2.10;;
26920;SDS011;14483;47.844;9.660;2023-01-06T12:50:25;4.10;;;2.35;;
26920;SDS011;14483;47.844;9.660;2023-01-06T12:52:56;5.28;;;3.25;;
26920;SDS011;14483;47.844;9.660;2023-01-06T12:55:26;5.45;;;2.92;;
26920;SDS011;14483;47.844;9.660;2023-01-06T12:57:56;3.60;;;1.85;;
26920;SDS011;14483;47.844;9.660;2023-01-06T13:00:27;4.72;;;2.45;;
26920;SDS011;14483;47.844;9.660;2023-01-06T13:03:22;3.40;;;2.03;;
26920;SDS011;14483;47.844;9.660;2023-01-06T13:05:53;3.95;;;2.42;;
26920;SDS011;14483;47.844;9.660;2023-01-06T13:08:32;3.75;;;1.58;;
26920;SDS011;14483;47.844;9.660;2023-01-06T13:11:06;2.83;;;2.10;;
26920;SDS011;14483;47.844;9.660;2023-01-06T13:13:42;4.15;;;1.95;;
26920;SDS011;14483;47.844;9.660;2023-01-06T13:16:13;3.83;;;2.13;;
26920;SDS011;14483;47.844;9.660;2023-01-06T13:18:42;3.05;;;1.83;;
26920;SDS011;14483;47.844;9.660;2023-01-06T13:21:10;5.35;;;2.22;;
26920;SDS011;14483;47.844;9.660;2023-01-06T13:23:47;4.38;;;2.15;;
26920;SDS011;14483;47.844;9.660;2023-01-06T13:26:24;5.10;;;2.15;;
26920;SDS011;14483;47.844;9.660;2023-01-06T13:28:56;5.45;;;2.75;;
26920;SDS011;14483;47.844;9.660;2023-01-06T13:34:49;3.80;;;1.95;;
26920;SDS011;14483;47.844;9.660;2023-01-06T13:37:24;4.72;;;2.28;;
26920;SDS011;14483;47.844;9.660;2023-01-06T13:39:53;4.32;;;2.22;;
26920;SDS011;14483;47.844;9.660;2023-01-06T13:42:22;4.47;;;2.45;;
26920;SDS011;14483;47.844;9.660;2023-01-06T13:44:51;5.40;;;1.95;;
26920;SDS011;14483;47.844;9.660;2023-01-06T13:47:18;3.75;;;2.00;;
26920;SDS011;14483;47.844;9.660;2023-01-06T13:49:46;3.15;;;1.95;;
26920;SDS011;14483;47.844;9.660;2023-01-06T13:52:13;3.35;;;1.83;;
26920;SDS011;14483;47.844;9.660;2023-01-06T13:54:59;3.25;;;1.63;;
26920;SDS011;14483;47.844;9.660;2023-01-06T13:57:31;4.35;;;1.67;;
26920;SDS011;14483;47.844;9.660;2023-01-06T14:03:03;2.85;;;1.90;;
26920;SDS011;14483;47.844;9.660;2023-01-06T14:05:49;2.10;;;1.38;;
26920;SDS011;14483;47.844;9.660;2023-01-06T14:08:16;3.75;;;1.90;;
26920;SDS011;14483;47.844;9.660;2023-01-06T14:10:45;2.38;;;1.50;;
26920;SDS011;14483;47.844;9.660;2023-01-06T14:13:17;2.85;;;1.60;;
26920;SDS011;14483;47.844;9.660;2023-01-06T14:15:50;3.65;;;1.83;;
26920;SDS011;14483;47.844;9.660;2023-01-06T14:18:28;4.18;;;1.98;;
26920;SDS011;14483;47.844;9.660;2023-01-06T14:20:58;4.45;;;1.27;;
26920;SDS011;14483;47.844;9.660;2023-01-06T14:23:26;3.65;;;1.48;;
26920;SDS011;14483;47.844;9.660;2023-01-06T14:25:54;2.03;;;1.00;;
26920;SDS011;14483;47.844;9.660;2023-01-06T14:28:25;2.45;;;1.10;;
26920;SDS011;14483;47.844;9.660;2023-01-06T14:33:33;3.88;;;1.65;;
26920;SDS011;14483;47.844;9.660;2023-01-06T14:36:02;3.80;;;1.10;;
26920;SDS011;14483;47.844;9.660;2023-01-06T14:38:29;2.35;;;1.10;;
26920;SDS011;14483;47.844;9.660;2023-01-06T14:40:58;2.33;;;1.20;;
26920;SDS011;14483;47.844;9.660;2023-01-06T14:43:27;1.75;;;0.90;;
26920;SDS011;14483;47.844;9.660;2023-01-06T14:45:55;2.45;;;0.95;;
26920;SDS011;14483;47.844;9.660;2023-01-06T14:48:22;2.25;;;0.70;;
26920;SDS011;14483;47.844;9.660;2023-01-06T14:50:52;1.52;;;0.90;;
26920;SDS011;14483;47.844;9.660;2023-01-06T14:53:21;1.75;;;0.70;;
26920;SDS011;14483;47.844;9.660;2023-01-06T14:55:48;2.20;;;0.77;;
26920;SDS011;14483;47.844;9.660;2023-01-06T14:58:27;1.73;;;0.75;;
26920;SDS011;14483;47.844;9.660;2023-01-06T15:00:54;3.00;;;0.75;;
26920;SDS011;14483;47.844;9.660;2023-01-06T15:03:20;2.65;;;0.75;;
26920;SDS011;14483;47.844;9.660;2023-01-06T15:05:47;1.50;;;0.70;;
26920;SDS011;14483;47.844;9.660;2023-01-06T15:08:14;1.95;;;0.60;;
26920;SDS011;14483;47.844;9.660;2023-01-06T15:10:41;1.60;;;0.60;;